Ayr Alva Beach, Queensland

2:20 PM AEST on September 23, 2014 (GMT +1000)
On The Edge of The sugar cane in Ayr, Qld | Change Station
CLOSE
Current Station
Personal Weather Station
Location: Ayr, QLD
Elevation: 39 ft
Nearby Weather Stations

Elev 39 ft 19.58 °S, 147.42 °E | Updated 0 second ago

Mostly Cloudy
Mostly Cloudy
83.2 °F
Feels Like 86 °F
N
10.0
Wind Variable Wind from SE
Gusts 13.0 mph

Today
High -- | Low -- °F
--% Chance of Precip.
Yesterday
High -- | Low -- °F
Precip. -- in
5:59 AM 6:06 PM
Waning Crescent, 1% visible
Pressure 30.04 in
Visibility 6.2 miles
Clouds Few 3000 ft
Mostly Cloudy 7500 ft
Heat Index 86 °F
Dew Point 66 °F
Humidity 57%
Rainfall 0.00 in
Snow Depth Not available.
UV 5 out of 12
Pollen Not available.
Air Quality Not available.
Flu Activity Not available.
METAR YBTL 230400Z 08017KT 9999 FEW030 BKN075 27/17 Q1017 RMK DISTANT SHOWERS

More Conditions Fewer Conditions

Pressure 30.04 in
Visibility 6.2 miles
Clouds Few 3000 ft
Mostly Cloudy 7500 ft
Heat Index 86 °F
Dew Point 66 °F
Humidity 57%
Rainfall 0.00 in
Snow Depth Not available.
UV 5 out of 12
Pollen Not available.
Air Quality Not available.
Flu Activity Not available.
METAR YBTL 230400Z 08017KT 9999 FEW030 BKN075 27/17 Q1017 RMK DISTANT SHOWERS

More Conditions Fewer Conditions

10-Day Weather Forecast

Almanac

Astronomy

Sep. 23, 2014 Rise Set
Actual Time 5:59 AM AEST 6:06 PM AEST
Civil Twilight 5:37 AM AEST 6:28 PM AEST
Nautical Twilight 5:11 AM AEST 6:53 PM AEST
Astronomical Twilight 4:46 AM AEST 7:19 PM AEST
Moon 5:03 AM AEST 5:16 PM AEST
Length of Visible Light 12h 50m
Length of Day
12h 06m
Tomorrow will be 1m 6s longer.
Waning Crescent, 1% of the Moon is Illuminated
Today
Waning Crescent
Sep 24
New
Oct 1
First Quarter
Oct 8
Full
Oct 15
Last Quarter

Yesterday's Extremes

Country Highs Country Lows

Community

WunderPhotos

Upload Photos

1,755,611 photos uploaded!

Nearby

Snow Depth

Not available.

Earthquake Activity

City Distance Mag. Time & Date
No recent earthquake activity has been reported nearby.
Minimum magnitude displayed is 2.5.

Coastal Water Temperatures

Place Temperature
No Stations Reporting

Nearby Weather Stations